Time;durP1;ratioP1;P1;durP2;ratioP2;P2;SDS_P1;SDS_P2;PMS_P1;PMS_P2;Temp;Humidity;BMP_temperature;BMP_pressure;BME280_temperature;BME280_humidity;BME280_pressure;Samples;Min_cycle;Max_cycle;Signal;HPM_P1;HPM_P2
2023/07/13 00:00:41;;;;;;;4.28;2.00;;;23.90;67.40;;;;;;7400418;19;20054;-76
2023/07/13 00:03:12;;;;;;;8.30;2.15;;;23.90;67.50;;;;;;7382603;19;20056;-76
2023/07/13 00:05:43;;;;;;;;;;;23.90;67.40;;;;;;7385036;19;20028;-78
2023/07/13 00:08:12;;;;;;;6.47;2.67;;;23.90;67.50;;;;;;7381977;19;20521;-77
2023/07/13 00:10:46;;;;;;;6.25;2.15;;;23.90;67.60;;;;;;7380752;19;20002;-76
2023/07/13 00:13:15;;;;;;;7.25;2.15;;;23.80;67.70;;;;;;7381478;19;20006;-77
2023/07/13 00:15:43;;;;;;;5.03;2.08;;;23.80;67.90;;;;;;7408304;19;20023;-77
2023/07/13 00:18:14;;;;;;;5.07;2.10;;;23.70;68.30;;;;;;7385605;19;20011;-76
2023/07/13 00:20:46;;;;;;;7.80;2.08;;;23.80;68.40;;;;;;7387586;19;20006;-76
2023/07/13 00:23:14;;;;;;;;;;;23.70;68.30;;;;;;7392113;19;20744;-77
2023/07/13 00:25:43;;;;;;;6.88;2.05;;;23.80;68.30;;;;;;7387721;19;19919;-78
2023/07/13 00:28:11;;;;;;;5.82;2.20;;;23.80;68.10;;;;;;7390754;19;20006;-76
2023/07/13 00:30:43;;;;;;;11.23;2.22;;;23.80;68.20;;;;;;7407894;19;20023;-78
2023/07/13 00:33:13;;;;;;;8.93;2.10;;;23.80;68.40;;;;;;7389948;19;20022;-78
2023/07/13 00:35:45;;;;;;;5.97;2.42;;;23.90;68.50;;;;;;7388036;19;20007;-79
2023/07/13 00:38:14;;;;;;;7.55;2.40;;;23.90;68.40;;;;;;7388708;19;20064;-77
2023/07/13 00:40:43;;;;;;;8.40;2.22;;;24.00;68.00;;;;;;7387294;19;20007;-77
2023/07/13 00:43:15;;;;;;;5.70;2.17;;;24.00;68.00;;;;;;7393274;19;20063;-77
2023/07/13 00:46:22;;;;;;;11.90;2.40;;;24.00;68.10;;;;;;7410557;19;20003;-78
2023/07/13 00:48:53;;;;;;;4.10;1.83;;;23.90;68.00;;;;;;7287319;19;2004648;-77
2023/07/13 00:51:27;;;;;;;;;;;23.90;67.70;;;;;;7418987;19;20003;-78
2023/07/13 00:53:59;;;;;;;7.28;2.28;;;23.90;68.10;;;;;;7394522;19;19938;-78
2023/07/13 00:56:28;;;;;;;10.07;2.05;;;23.80;68.20;;;;;;7399529;19;20015;-76
2023/07/13 00:58:58;;;;;;;4.43;1.67;;;23.80;68.30;;;;;;7386449;19;20006;-77
2023/07/13 01:01:29;;;;;;;7.93;2.70;;;23.80;68.30;;;;;;7386041;19;20385;-77
2023/07/13 01:03:58;;;;;;;;;;;23.80;68.70;;;;;;7384433;19;20032;-77
2023/07/13 01:06:30;;;;;;;10.10;2.25;;;23.90;68.90;;;;;;7407467;19;19914;-78
2023/07/13 01:09:01;;;;;;;4.35;1.98;;;23.90;68.80;;;;;;7385408;19;20014;-77
2023/07/13 01:11:30;;;;;;;3.47;1.75;;;23.90;68.90;;;;;;7387116;19;20365;-77
2023/07/13 01:14:01;;;;;;;8.70;2.65;;;23.90;68.70;;;;;;7390397;19;20020;-80
2023/07/13 01:16:34;;;;;;;7.22;2.08;;;23.90;68.50;;;;;;7390501;19;20047;-80
2023/07/13 01:19:06;;;;;;;5.80;1.98;;;23.90;68.70;;;;;;7388874;19;20363;-80
2023/07/13 01:21:42;;;;;;;5.20;1.80;;;23.90;68.80;;;;;;7408969;19;20409;-80
2023/07/13 01:24:11;;;;;;;13.27;2.10;;;23.90;68.80;;;;;;7394455;19;20011;-78
2023/07/13 01:26:40;;;;;;;7.25;1.60;;;23.90;68.80;;;;;;7402923;19;20006;-78
2023/07/13 01:29:09;;;;;;;5.97;1.80;;;23.90;69.00;;;;;;7393894;19;20081;-76
2023/07/13 01:31:37;;;;;;;4.88;1.80;;;23.90;69.00;;;;;;7391373;19;20003;-77
2023/07/13 01:34:06;;;;;;;11.05;1.85;;;23.90;68.60;;;;;;7385254;19;20007;-78
2023/07/13 01:36:38;;;;;;;8.13;2.53;;;23.80;68.30;;;;;;7405726;19;20018;-79
2023/07/13 01:39:07;;;;;;;7.10;3.30;;;23.80;68.30;;;;;;7384591;19;20070;-77
2023/07/13 01:41:36;;;;;;;8.07;2.20;;;23.80;68.30;;;;;;7389633;19;20011;-77
2023/07/13 01:44:04;;;;;;;6.18;2.50;;;23.80;68.20;;;;;;7389763;19;20322;-78
2023/07/13 01:46:33;;;;;;;6.28;2.70;;;23.70;68.00;;;;;;7386026;19;20003;-78
2023/07/13 01:49:02;;;;;;;13.13;2.00;;;23.70;68.10;;;;;;7390340;19;20030;-78
2023/07/13 01:51:30;;;;;;;10.93;2.17;;;23.60;68.20;;;;;;7406016;19;20016;-78
2023/07/13 01:54:02;;;;;;;6.80;2.08;;;23.60;68.50;;;;;;7386658;19;20007;-77
2023/07/13 01:56:30;;;;;;;;;;;23.40;68.70;;;;;;7386702;19;20015;-79
2023/07/13 01:59:00;;;;;;;6.05;1.83;;;23.40;69.10;;;;;;7394160;19;19930;-78
2023/07/13 02:01:29;;;;;;;5.78;1.73;;;23.40;69.10;;;;;;7395204;19;20015;-79
2023/07/13 02:04:03;;;;;;;4.85;2.00;;;23.40;69.10;;;;;;7395131;19;20011;-79
2023/07/13 02:06:36;;;;;;;8.20;2.05;;;23.40;69.10;;;;;;7416653;19;20007;-79
2023/07/13 02:09:10;;;;;;;4.05;1.80;;;23.40;69.10;;;;;;7398121;19;20015;-79
2023/07/13 02:11:41;;;;;;;8.43;1.88;;;23.40;68.20;;;;;;7396487;19;20014;-79
2023/07/13 02:14:12;;;;;;;4.72;1.88;;;23.40;67.70;;;;;;7397024;19;20085;-80
2023/07/13 02:16:42;;;;;;;8.05;1.90;;;23.30;67.20;;;;;;7398057;19;20029;-80
2023/07/13 02:19:12;;;;;;;7.93;2.08;;;23.20;66.90;;;;;;7397946;19;20098;-80
2023/07/13 02:21:41;;;;;;;6.32;1.73;;;23.20;66.60;;;;;;7417547;19;20026;-79
2023/07/13 02:24:19;;;;;;;5.95;1.73;;;23.30;66.60;;;;;;7395047;19;20014;-79
2023/07/13 02:26:51;;;;;;;4.65;1.63;;;23.30;66.70;;;;;;7396485;19;20017;-80
2023/07/13 02:29:24;;;;;;;2.83;1.10;;;23.40;66.20;;;;;;7397307;19;19998;-79
2023/07/13 02:31:55;;;;;;;3.80;1.50;;;23.40;66.10;;;;;;7393724;19;20007;-78
2023/07/13 02:34:24;;;;;;;6.57;1.63;;;23.40;65.90;;;;;;7395089;19;20007;-79
2023/07/13 02:36:54;;;;;;;5.40;1.58;;;23.40;65.60;;;;;;7417456;19;20018;-78
2023/07/13 02:39:26;;;;;;;6.78;1.73;;;23.40;65.30;;;;;;7412522;19;20358;-78
2023/07/13 02:41:57;;;;;;;;;;;23.40;65.20;;;;;;7390214;19;20002;-78
2023/07/13 02:44:26;;;;;;;5.45;1.55;;;23.50;65.40;;;;;;7391096;19;19911;-77
2023/07/13 02:46:58;;;;;;;9.65;1.90;;;23.40;65.30;;;;;;7391947;19;20006;-77
2023/07/13 02:49:27;;;;;;;5.50;1.60;;;23.50;65.00;;;;;;7384132;19;20031;-77
2023/07/13 02:51:55;;;;;;;9.93;1.70;;;23.50;64.90;;;;;;7383243;19;20007;-76
2023/07/13 02:54:27;;;;;;;7.63;1.90;;;23.50;64.70;;;;;;7403698;19;20354;-77
2023/07/13 02:56:56;;;;;;;5.80;1.40;;;23.40;64.70;;;;;;7382131;19;20002;-77
2023/07/13 02:59:24;;;;;;;6.85;1.63;;;23.40;64.80;;;;;;7382333;19;20019;-77
2023/07/13 03:01:53;;;;;;;15.48;1.67;;;23.40;64.90;;;;;;7383576;19;20024;-77
2023/07/13 03:04:22;;;;;;;7.13;1.38;;;23.30;64.90;;;;;;7383790;19;20010;-80
2023/07/13 03:06:51;;;;;;;5.55;1.67;;;23.40;65.00;;;;;;7406881;19;20007;-79
2023/07/13 03:09:21;;;;;;;6.13;1.45;;;23.30;64.90;;;;;;7386868;19;20216;-79
2023/07/13 03:11:54;;;;;;;6.05;1.83;;;23.30;65.00;;;;;;7384659;19;20010;-78
2023/07/13 03:14:24;;;;;;;5.50;1.67;;;23.40;65.00;;;;;;7386496;19;20070;-79
2023/07/13 03:16:53;;;;;;;8.85;1.75;;;23.40;64.90;;;;;;7386484;19;20244;-79
2023/07/13 03:19:24;;;;;;;6.60;1.70;;;23.40;65.00;;;;;;7390124;19;20303;-79
2023/07/13 03:21:58;;;;;;;5.00;1.17;;;23.40;64.80;;;;;;7410475;19;20007;-79
2023/07/13 03:24:27;;;;;;;7.15;2.05;;;23.50;64.40;;;;;;7385723;19;20050;-78
2023/07/13 03:26:59;;;;;;;4.65;1.50;;;23.50;64.60;;;;;;7387925;19;20033;-79
2023/07/13 03:29:27;;;;;;;8.20;1.65;;;23.40;64.40;;;;;;7387821;19;20006;-79
2023/07/13 03:31:56;;;;;;;4.47;1.42;;;23.40;64.50;;;;;;7388405;19;20106;-79
2023/07/13 03:34:26;;;;;;;8.00;1.42;;;23.30;64.70;;;;;;7390095;19;20006;-79
2023/07/13 03:36:57;;;;;;;12.20;1.73;;;23.30;64.80;;;;;;7397023;19;20010;-78
2023/07/13 03:39:26;;;;;;;7.80;1.48;;;23.30;64.90;;;;;;7404532;19;20015;-79
2023/07/13 03:41:58;;;;;;;7.70;1.67;;;23.20;64.90;;;;;;7386233;19;20011;-80
2023/07/13 03:44:29;;;;;;;7.10;1.60;;;23.30;65.10;;;;;;7386911;19;20003;-80
2023/07/13 03:46:57;;;;;;;;;;;23.20;65.10;;;;;;7388771;19;20014;-78
2023/07/13 03:49:26;;;;;;;7.38;1.80;;;23.30;65.50;;;;;;7390381;19;19907;-78
2023/07/13 03:51:55;;;;;;;5.88;1.50;;;23.10;65.50;;;;;;7395772;19;20019;-79
2023/07/13 03:54:26;;;;;;;7.85;1.60;;;23.20;65.80;;;;;;7413812;19;20003;-78
2023/07/13 03:56:54;;;;;;;15.17;2.07;;;23.10;65.80;;;;;;7393664;19;20003;-79
2023/07/13 03:59:26;;;;;;;6.75;1.63;;;23.10;66.10;;;;;;7394545;19;20007;-79
2023/07/13 04:01:55;;;;;;;;;;;23.10;66.30;;;;;;7392250;19;20010;-79
2023/07/13 04:04:23;;;;;;;5.78;1.30;;;23.10;66.30;;;;;;7394919;19;19922;-79
2023/07/13 04:06:53;;;;;;;6.80;1.40;;;23.10;66.40;;;;;;7414333;19;20011;-78
2023/07/13 04:09:22;;;;;;;11.18;2.03;;;23.00;66.90;;;;;;7396525;19;20361;-79
2023/07/13 04:11:50;;;;;;;7.82;1.77;;;23.10;67.00;;;;;;7397052;19;20015;-79
2023/07/13 04:14:19;;;;;;;6.25;1.80;;;23.10;67.10;;;;;;7394554;19;20366;-79
2023/07/13 04:16:51;;;;;;;7.93;1.70;;;23.10;67.30;;;;;;7394800;19;20030;-79
2023/07/13 04:19:19;;;;;;;;;;;23.10;67.30;;;;;;7396205;19;20010;-79
2023/07/13 04:21:48;;;;;;;11.27;1.80;;;23.10;67.50;;;;;;7415765;19;19924;-79
2023/07/13 04:24:19;;;;;;;6.90;1.60;;;23.00;67.40;;;;;;7393701;19;20010;-78
2023/07/13 04:26:48;;;;;;;15.98;2.00;;;23.00;67.60;;;;;;7392286;19;20010;-79
2023/07/13 04:29:17;;;;;;;14.23;1.70;;;23.00;67.90;;;;;;7391397;19;20338;-77
2023/07/13 04:31:45;;;;;;;7.22;2.00;;;22.90;68.30;;;;;;7387118;19;20251;-77
2023/07/13 04:34:17;;;;;;;10.18;2.30;;;22.90;68.30;;;;;;7390944;19;19996;-78
2023/07/13 04:36:45;;;;;;;;;;;22.90;68.40;;;;;;7415514;19;20030;-77
2023/07/13 04:39:14;;;;;;;5.45;2.15;;;23.00;68.40;;;;;;7392100;19;19943;-78
2023/07/13 04:41:42;;;;;;;5.28;1.67;;;22.90;68.50;;;;;;7392277;19;20024;-78
2023/07/13 04:44:14;;;;;;;7.43;1.75;;;22.90;68.70;;;;;;7393545;19;20019;-78
2023/07/13 04:46:42;;;;;;;6.07;1.92;;;22.80;68.60;;;;;;7394369;19;20013;-77
2023/07/13 04:49:11;;;;;;;8.15;2.08;;;22.90;68.80;;;;;;7394195;19;20006;-77
2023/07/13 04:51:42;;;;;;;8.93;2.00;;;23.00;68.80;;;;;;7425693;19;20010;-77
2023/07/13 04:54:11;;;;;;;;;;;23.00;68.60;;;;;;7389137;19;20011;-78
2023/07/13 04:56:47;;;;;;;9.52;2.15;;;23.10;68.70;;;;;;7390414;19;19915;-78
2023/07/13 04:59:15;;;;;;;7.80;1.80;;;23.20;68.50;;;;;;7390488;19;20006;-79
2023/07/13 05:01:46;;;;;;;7.43;1.67;;;23.20;68.60;;;;;;7386979;19;20011;-78
2023/07/13 05:04:17;;;;;;;8.20;2.42;;;23.10;68.50;;;;;;7389588;19;20392;-78
2023/07/13 05:06:50;;;;;;;9.40;2.03;;;23.20;68.70;;;;;;7411911;19;20031;-79
2023/07/13 05:09:21;;;;;;;11.55;1.80;;;23.10;68.90;;;;;;7389907;19;20041;-78
2023/07/13 05:11:53;;;;;;;12.80;2.08;;;23.10;68.90;;;;;;7388540;19;20044;-78
2023/07/13 05:14:21;;;;;;;12.98;2.40;;;23.20;69.10;;;;;;7385077;19;20006;-78
2023/07/13 05:16:50;;;;;;;7.30;1.80;;;23.10;69.30;;;;;;7386943;19;20007;-79
2023/07/13 05:19:19;;;;;;;12.45;2.33;;;23.00;69.40;;;;;;7388150;19;20011;-80
2023/07/13 05:21:52;;;;;;;9.70;1.92;;;23.00;69.70;;;;;;7409011;19;20012;-82
2023/07/13 05:24:21;;;;;;;6.38;2.00;;;23.00;70.00;;;;;;7391476;19;20006;-82
2023/07/13 05:26:50;;;;;;;9.18;1.88;;;22.90;70.20;;;;;;7393209;19;20014;-82
2023/07/13 05:29:18;;;;;;;10.05;1.70;;;22.90;70.50;;;;;;7394787;19;20014;-82
2023/07/13 05:31:49;;;;;;;6.05;1.90;;;22.80;70.60;;;;;;7396279;19;20011;-82
2023/07/13 05:34:18;;;;;;;7.90;2.07;;;22.80;70.70;;;;;;7400632;19;20014;-81
2023/07/13 05:36:48;;;;;;;10.85;2.28;;;22.80;70.80;;;;;;7412616;19;20007;-82
2023/07/13 05:39:21;;;;;;;9.88;2.53;;;22.70;71.10;;;;;;7390792;19;20048;-80
2023/07/13 05:41:50;;;;;;;11.20;2.10;;;22.80;71.20;;;;;;7390753;19;20006;-80
2023/07/13 05:44:19;;;;;;;9.25;1.90;;;22.80;71.10;;;;;;7390052;19;20011;-78
2023/07/13 05:46:48;;;;;;;8.77;1.98;;;22.90;71.00;;;;;;7402403;19;19998;-78
2023/07/13 05:49:17;;;;;;;13.23;2.55;;;22.90;70.70;;;;;;7404679;19;20007;-78
2023/07/13 05:51:46;;;;;;;6.45;2.00;;;22.90;70.80;;;;;;7413295;19;20014;-80
2023/07/13 05:54:15;;;;;;;15.02;2.50;;;23.00;70.80;;;;;;7387171;19;20358;-77
2023/07/13 05:56:46;;;;;;;11.25;1.98;;;22.90;70.60;;;;;;7384674;19;20023;-77
2023/07/13 05:59:15;;;;;;;9.07;2.30;;;22.90;70.70;;;;;;7383700;19;20006;-78
2023/07/13 06:01:44;;;;;;;8.07;2.15;;;22.90;71.30;;;;;;7387728;19;20401;-78
2023/07/13 06:04:13;;;;;;;8.43;2.20;;;22.90;71.40;;;;;;7387735;19;20007;-78
2023/07/13 06:06:42;;;;;;;7.43;2.25;;;23.00;71.30;;;;;;7410419;19;20033;-78
2023/07/13 06:09:11;;;;;;;11.27;2.13;;;23.10;70.80;;;;;;7388165;19;20024;-79
2023/07/13 06:11:39;;;;;;;8.93;2.10;;;23.20;70.80;;;;;;7391563;19;20006;-81
2023/07/13 06:14:11;;;;;;;6.80;1.98;;;23.20;70.70;;;;;;7392308;19;20023;-81
2023/07/13 06:16:39;;;;;;;;;;;23.10;70.80;;;;;;7390351;19;20007;-78
2023/07/13 06:19:08;;;;;;;7.90;2.33;;;23.00;71.00;;;;;;7385389;19;19914;-77
2023/07/13 06:21:37;;;;;;;11.18;2.00;;;23.00;71.00;;;;;;7411120;19;20058;-78
2023/07/13 06:24:06;;;;;;;6.13;2.15;;;22.70;71.40;;;;;;7387522;19;20007;-79
2023/07/13 06:26:35;;;;;;;9.40;2.28;;;22.70;72.00;;;;;;7391894;19;20010;-80
2023/07/13 06:29:03;;;;;;;7.55;2.08;;;22.50;72.60;;;;;;7393531;19;20380;-80
2023/07/13 06:31:35;;;;;;;8.48;2.30;;;22.50;72.70;;;;;;7391176;19;20012;-80
2023/07/13 06:34:04;;;;;;;6.72;2.13;;;22.40;73.10;;;;;;7391959;19;20021;-80
2023/07/13 06:36:32;;;;;;;9.88;2.80;;;22.60;73.20;;;;;;7409545;19;20014;-79
2023/07/13 06:39:08;;;;;;;10.98;2.08;;;22.50;73.20;;;;;;7390695;19;20006;-79
2023/07/13 06:41:38;;;;;;;10.80;2.15;;;22.50;73.30;;;;;;7387860;19;20007;-78
2023/07/13 06:44:07;;;;;;;4.88;1.77;;;22.60;73.40;;;;;;7387694;19;20397;-77
2023/07/13 06:46:40;;;;;;;13.45;2.78;;;22.70;73.50;;;;;;7384379;19;20019;-76
2023/07/13 06:49:11;;;;;;;9.77;2.80;;;22.70;73.60;;;;;;7384488;19;20066;-73
2023/07/13 06:51:39;;;;;;;5.57;2.17;;;22.50;73.70;;;;;;7407162;19;20011;-73
2023/07/13 06:54:08;;;;;;;10.30;2.17;;;22.50;74.10;;;;;;7384834;19;20230;-74
2023/07/13 06:56:37;;;;;;;9.55;2.60;;;22.60;74.50;;;;;;7384826;19;20025;-73
2023/07/13 06:59:05;;;;;;;10.65;2.22;;;22.70;74.70;;;;;;7381493;19;20010;-74
2023/07/13 07:01:34;;;;;;;10.80;2.50;;;22.90;74.70;;;;;;7382255;19;20058;-73
2023/07/13 07:04:06;;;;;;;9.55;2.35;;;23.00;74.20;;;;;;7381429;19;20031;-75
2023/07/13 07:06:35;;;;;;;15.50;2.50;;;23.10;73.90;;;;;;7403483;19;20023;-70
2023/07/13 07:09:31;;;;;;;9.43;2.30;;;23.10;74.10;;;;;;7385305;19;20006;-81
2023/07/13 07:12:00;;;;;;;11.55;2.10;;;23.20;73.90;;;;;;7387805;19;20019;-77
2023/07/13 07:14:28;;;;;;;16.48;2.55;;;23.20;73.80;;;;;;7391000;19;20011;-76
2023/07/13 07:16:58;;;;;;;17.65;2.85;;;23.10;74.40;;;;;;7393495;19;20011;-75
2023/07/13 07:19:30;;;;;;;15.77;2.63;;;22.90;74.70;;;;;;7383130;19;20397;-74
2023/07/13 07:21:59;;;;;;;20.52;3.03;;;22.70;75.50;;;;;;7379630;19;20066;-73
2023/07/13 07:24:27;;;;;;;17.60;2.53;;;22.70;75.80;;;;;;7400907;19;20022;-72
2023/07/13 07:26:56;;;;;;;8.30;2.35;;;22.80;75.50;;;;;;7380766;19;20024;-73
2023/07/13 07:29:26;;;;;;;7.80;2.03;;;22.70;75.90;;;;;;7381749;19;20024;-75
2023/07/13 07:31:55;;;;;;;19.33;2.67;;;22.90;75.40;;;;;;7380978;19;20079;-73
2023/07/13 07:34:24;;;;;;;11.02;2.28;;;22.60;74.60;;;;;;7382179;19;20020;-73
2023/07/13 07:36:56;;;;;;;8.50;2.10;;;22.70;75.20;;;;;;7402461;19;20003;-76
2023/07/13 07:39:24;;;;;;;7.78;2.40;;;22.70;75.30;;;;;;7379868;19;20067;-71
2023/07/13 07:41:53;;;;;;;8.88;2.38;;;22.80;75.50;;;;;;7380578;19;19998;-73
2023/07/13 07:44:22;;;;;;;9.50;2.17;;;22.80;75.00;;;;;;7383609;19;20077;-72
2023/07/13 07:46:50;;;;;;;9.38;2.70;;;23.00;75.00;;;;;;7383945;19;20023;-73
2023/07/13 07:49:19;;;;;;;13.48;2.45;;;23.00;75.00;;;;;;7381808;19;20037;-73
2023/07/13 07:51:48;;;;;;;14.10;2.28;;;23.00;75.50;;;;;;7399989;19;20010;-75
2023/07/13 07:54:20;;;;;;;17.27;2.60;;;23.00;74.20;;;;;;7379873;19;20006;-73
2023/07/13 07:56:49;;;;;;;12.90;2.20;;;23.10;74.40;;;;;;7381111;19;20077;-74
2023/07/13 07:59:18;;;;;;;9.20;2.42;;;23.00;74.40;;;;;;7386256;19;20006;-74
2023/07/13 08:01:47;;;;;;;7.90;2.40;;;23.10;74.50;;;;;;7396475;19;20009;-74
2023/07/13 08:04:16;;;;;;;14.48;2.60;;;23.10;73.80;;;;;;7388683;19;20003;-76
2023/07/13 08:06:45;;;;;;;14.38;2.42;;;23.20;73.60;;;;;;7402725;19;20007;-75
2023/07/13 08:09:13;;;;;;;11.80;2.28;;;23.10;73.10;;;;;;7380201;19;20003;-74
2023/07/13 08:11:45;;;;;;;12.57;2.70;;;23.10;73.40;;;;;;7380208;19;20020;-72
2023/07/13 08:14:13;;;;;;;;;;;23.30;73.80;;;;;;7380585;19;20012;-76
2023/07/13 08:16:42;;;;;;;7.82;2.42;;;23.20;74.20;;;;;;7379207;19;20234;-76
2023/07/13 08:19:11;;;;;;;10.73;2.38;;;23.30;73.80;;;;;;7378229;19;20017;-74
2023/07/13 08:21:42;;;;;;;8.90;2.03;;;23.20;73.10;;;;;;7403485;19;20006;-78
2023/07/13 08:24:11;;;;;;;10.00;1.80;;;23.40;72.80;;;;;;7378930;19;19999;-73
2023/07/13 08:26:39;;;;;;;10.73;1.98;;;23.40;72.60;;;;;;7379267;19;20228;-74
2023/07/13 08:29:11;;;;;;;13.05;2.75;;;23.60;72.70;;;;;;7378793;19;20015;-75
2023/07/13 08:31:42;;;;;;;6.80;1.70;;;23.60;72.00;;;;;;7378888;19;20015;-76
2023/07/13 08:34:10;;;;;;;6.57;1.85;;;23.60;71.50;;;;;;7379512;19;20010;-75
2023/07/13 08:36:39;;;;;;;12.50;2.03;;;23.70;70.50;;;;;;7403530;19;20260;-75
2023/07/13 08:39:08;;;;;;;11.65;1.92;;;23.90;70.30;;;;;;7385162;19;20062;-76
2023/07/13 08:41:38;;;;;;;8.57;2.00;;;24.10;69.60;;;;;;7384320;19;20361;-76
2023/07/13 08:44:17;;;;;;;6.00;1.98;;;24.00;69.40;;;;;;7385975;19;20023;-76
2023/07/13 08:46:48;;;;;;;8.93;1.70;;;24.00;68.80;;;;;;7386657;19;20007;-73
2023/07/13 08:49:22;;;;;;;10.87;1.87;;;24.00;69.00;;;;;;7386048;19;20006;-73
2023/07/13 08:51:56;;;;;;;7.75;1.75;;;24.00;68.70;;;;;;7407767;19;20270;-75
2023/07/13 08:54:30;;;;;;;8.18;2.40;;;23.70;68.80;;;;;;7388989;19;20005;-76
2023/07/13 08:57:01;;;;;;;6.50;1.92;;;23.90;68.40;;;;;;7388813;19;20015;-76
2023/07/13 08:59:35;;;;;;;9.30;1.58;;;24.00;68.30;;;;;;7387508;19;20278;-74
2023/07/13 09:02:27;;;;;;;9.90;1.88;;;24.10;68.00;;;;;;7387488;19;20312;-74
2023/07/13 09:05:02;;;;;;;10.27;2.00;;;23.80;67.10;;;;;;7384572;19;20015;-72
2023/07/13 09:07:43;;;;;;;8.85;1.83;;;23.90;68.00;;;;;;7383353;19;20058;-72
2023/07/13 09:10:18;;;;;;;8.65;2.00;;;23.60;68.40;;;;;;7389532;19;20019;-72
2023/07/13 09:13:00;;;;;;;4.82;1.50;;;23.60;68.00;;;;;;7408466;19;20015;-70
2023/07/13 09:15:34;;;;;;;5.30;1.70;;;23.50;68.00;;;;;;7387831;19;20212;-70
2023/07/13 09:18:08;;;;;;;4.68;1.58;;;23.60;66.50;;;;;;7385586;19;20007;-70
2023/07/13 09:20:40;;;;;;;8.45;1.80;;;23.60;65.50;;;;;;7383407;19;20280;-72
2023/07/13 09:23:17;;;;;;;8.63;1.75;;;23.60;66.40;;;;;;7386642;19;20015;-74
2023/07/13 09:25:50;;;;;;;7.95;1.90;;;24.00;65.50;;;;;;7382873;19;20393;-72
2023/07/13 09:28:26;;;;;;;4.28;1.58;;;24.30;64.40;;;;;;7382533;19;20236;-69
2023/07/13 09:31:05;;;;;;;6.03;1.33;;;24.40;63.50;;;;;;7385353;19;20287;-71
2023/07/13 09:33:34;;;;;;;8.27;1.52;;;24.60;63.60;;;;;;7403646;19;20010;-71
2023/07/13 09:36:06;;;;;;;12.35;1.55;;;24.70;64.10;;;;;;7383596;19;20002;-71
2023/07/13 09:38:34;;;;;;;;;;;24.80;63.40;;;;;;7384837;19;20024;-71
2023/07/13 09:41:17;;;;;;;7.93;1.75;;;24.80;62.00;;;;;;7383707;19;19915;-73
2023/07/13 09:44:04;;;;;;;4.47;1.45;;;24.60;62.00;;;;;;7384033;19;20011;-70
2023/07/13 09:46:35;;;;;;;4.72;1.45;;;24.50;62.50;;;;;;7385256;19;20286;-73
2023/07/13 09:49:04;;;;;;;;;;;24.70;62.40;;;;;;7387875;19;20014;-71
2023/07/13 09:51:35;;;;;;;7.82;1.75;;;24.70;62.20;;;;;;7413335;19;19911;-70
2023/07/13 09:54:03;;;;;;;8.40;1.73;;;24.80;61.40;;;;;;7389030;19;20006;-70
2023/07/13 09:56:33;;;;;;;7.13;1.60;;;24.70;62.20;;;;;;7389148;19;20013;-70
2023/07/13 09:59:02;;;;;;;4.82;1.60;;;24.70;61.70;;;;;;7387479;19;20013;-70
2023/07/13 10:01:42;;;;;;;6.50;1.50;;;24.70;62.90;;;;;;7385575;19;20007;-71
2023/07/13 10:04:15;;;;;;;6.97;1.50;;;24.40;63.00;;;;;;7387960;19;20015;-71
2023/07/13 10:06:44;;;;;;;9.82;1.52;;;24.50;62.70;;;;;;7409936;19;20399;-72
2023/07/13 10:09:17;;;;;;;3.72;1.23;;;24.50;62.90;;;;;;7389813;19;20007;-70
2023/07/13 10:11:46;;;;;;;6.82;1.90;;;24.60;62.90;;;;;;7392296;19;20003;-73
2023/07/13 10:14:18;;;;;;;4.70;1.50;;;24.60;62.70;;;;;;7385339;19;20270;-71
2023/07/13 10:16:53;;;;;;;4.30;1.27;;;24.80;62.60;;;;;;7383866;19;20010;-72
2023/07/13 10:19:27;;;;;;;6.13;1.60;;;24.60;62.10;;;;;;7386748;19;20051;-73
2023/07/13 10:21:59;;;;;;;5.72;1.38;;;24.70;62.80;;;;;;7385190;19;19999;-71
2023/07/13 10:24:28;;;;;;;;;;;24.80;62.50;;;;;;7406733;19;20010;-69
2023/07/13 10:27:04;;;;;;;8.07;1.92;;;24.90;61.80;;;;;;7382406;19;20191;-71
2023/07/13 10:29:40;;;;;;;4.18;1.92;;;25.00;61.60;;;;;;7382407;19;20006;-71
2023/07/13 10:32:17;;;;;;;5.70;1.30;;;24.90;61.30;;;;;;7383736;19;20007;-72
2023/07/13 10:34:50;;;;;;;4.82;1.30;;;25.00;61.50;;;;;;7383298;19;20275;-72
2023/07/13 10:37:24;;;;;;;4.60;1.30;;;25.10;60.50;;;;;;7383634;19;20020;-73
2023/07/13 10:39:56;;;;;;;5.95;1.55;;;24.60;61.70;;;;;;7402957;19;20007;-73
2023/07/13 10:42:31;;;;;;;3.88;1.40;;;24.60;62.20;;;;;;7383318;19;20397;-73
2023/07/13 10:45:01;;;;;;;5.50;1.50;;;24.50;62.00;;;;;;7383108;19;20052;-75
2023/07/13 10:47:34;;;;;;;11.35;1.60;;;24.40;62.50;;;;;;7384274;19;20283;-72
2023/07/13 10:50:03;;;;;;;5.70;1.33;;;24.40;62.60;;;;;;7383703;19;20002;-72
2023/07/13 10:52:50;;;;;;;6.13;1.42;;;24.40;62.90;;;;;;7381696;19;20023;-73
2023/07/13 10:55:35;;;;;;;4.68;1.25;;;24.50;62.90;;;;;;7381526;19;20011;-71
2023/07/13 10:58:13;;;;;;;4.50;1.17;;;24.40;62.80;;;;;;7381070;19;20143;-72
2023/07/13 11:00:50;;;;;;;7.93;1.90;;;24.40;62.90;;;;;;7404295;19;20014;-71
2023/07/13 11:03:25;;;;;;;4.88;1.35;;;24.40;63.30;;;;;;7383127;19;19999;-71
2023/07/13 11:06:08;;;;;;;8.82;1.45;;;24.30;63.70;;;;;;7381523;19;20034;-73
2023/07/13 11:08:39;;;;;;;6.95;1.70;;;24.30;63.90;;;;;;7381906;19;20732;-73
2023/07/13 11:11:38;;;;;;;10.57;1.63;;;24.40;63.50;;;;;;7383799;19;20391;-73
2023/07/13 11:14:28;;;;;;;3.58;1.40;;;24.40;63.50;;;;;;7381465;19;20388;-71
2023/07/13 11:16:56;;;;;;;2.97;1.17;;;24.60;63.40;;;;;;7383065;19;20003;-72
2023/07/13 11:19:53;;;;;;;5.28;1.30;;;24.70;63.00;;;;;;7384871;19;20020;-72
2023/07/13 11:22:27;;;;;;;2.72;1.52;;;24.90;62.10;;;;;;7380691;19;20038;-72
2023/07/13 11:25:01;;;;;;;3.63;1.30;;;25.00;61.70;;;;;;7381364;19;20042;-71
2023/07/13 11:27:43;;;;;;;6.85;1.55;;;25.20;61.90;;;;;;7406296;19;20014;-73
2023/07/13 11:30:26;;;;;;;11.38;1.98;;;25.30;61.60;;;;;;7384629;19;20066;-73
2023/07/13 11:33:12;;;;;;;6.45;1.45;;;25.30;60.40;;;;;;7384177;19;20006;-72
2023/07/13 11:35:51;;;;;;;4.95;1.60;;;25.50;60.80;;;;;;7380565;19;20003;-74
2023/07/13 11:38:22;;;;;;;5.45;1.27;;;25.60;60.40;;;;;;7380955;19;20372;-72
2023/07/13 11:40:56;;;;;;;2.58;1.20;;;25.70;60.50;;;;;;7381383;19;20021;-72
2023/07/13 11:43:25;;;;;;;5.32;1.45;;;25.90;60.00;;;;;;7379501;19;20010;-74
2023/07/13 11:45:54;;;;;;;26.35;2.50;;;26.00;59.70;;;;;;7391768;19;20013;-76
2023/07/13 11:48:31;;;;;;;4.05;1.70;;;26.10;58.80;;;;;;7400079;19;20014;-75
2023/07/13 11:51:05;;;;;;;4.57;1.30;;;26.00;59.00;;;;;;7378729;19;20017;-72
2023/07/13 11:53:41;;;;;;;4.03;1.27;;;26.00;59.00;;;;;;7401521;19;20013;-73
2023/07/13 11:56:09;;;;;;;6.20;1.45;;;26.10;58.90;;;;;;7380037;19;20010;-73
2023/07/13 11:58:38;;;;;;;5.40;1.40;;;26.10;59.20;;;;;;7379890;19;20073;-70
2023/07/13 12:01:07;;;;;;;5.32;1.35;;;26.20;58.70;;;;;;7379190;19;20735;-74
2023/07/13 12:03:37;;;;;;;2.92;1.27;;;26.20;57.90;;;;;;7399290;19;20416;-73
2023/07/13 12:06:30;;;;;;;4.97;1.38;;;26.10;56.90;;;;;;7379064;19;20092;-73
2023/07/13 12:09:00;;;;;;;5.43;1.17;;;25.90;57.20;;;;;;7379070;19;20006;-73
2023/07/13 12:11:30;;;;;;;4.80;1.23;;;25.90;57.00;;;;;;7385685;19;20003;-73
2023/07/13 12:13:58;;;;;;;4.10;1.20;;;25.90;57.80;;;;;;7387335;19;20409;-72
2023/07/13 12:16:32;;;;;;;3.58;1.45;;;25.70;57.00;;;;;;7388791;19;20054;-74
2023/07/13 12:19:02;;;;;;;3.55;1.52;;;25.70;57.20;;;;;;7390155;19;20010;-72
2023/07/13 12:21:36;;;;;;;5.30;1.20;;;25.50;57.50;;;;;;7414396;19;20047;-74
2023/07/13 12:24:06;;;;;;;2.53;1.05;;;25.60;57.90;;;;;;7397462;19;20503;-71
2023/07/13 12:26:35;;;;;;;3.85;1.10;;;25.80;57.50;;;;;;7388736;19;20012;-70
2023/07/13 12:29:09;;;;;;;3.45;1.17;;;25.90;56.30;;;;;;7386932;19;20010;-71
2023/07/13 12:31:41;;;;;;;4.10;1.30;;;26.00;56.60;;;;;;7387661;19;20002;-71
2023/07/13 12:34:12;;;;;;;5.05;1.35;;;26.20;56.40;;;;;;7387399;19;20009;-71
2023/07/13 12:36:49;;;;;;;5.43;1.35;;;26.30;56.30;;;;;;7411368;19;20016;-73
2023/07/13 12:39:21;;;;;;;7.72;1.30;;;26.50;56.20;;;;;;7389315;19;20058;-72
2023/07/13 12:41:51;;;;;;;3.20;1.20;;;26.60;57.20;;;;;;7387697;19;20006;-74
2023/07/13 12:44:25;;;;;;;4.03;1.15;;;26.60;55.80;;;;;;7386453;19;20062;-71
2023/07/13 12:47:00;;;;;;;4.78;1.23;;;26.70;55.00;;;;;;7387881;19;20010;-71
2023/07/13 12:49:34;;;;;;;2.10;1.25;;;26.90;55.60;;;;;;7385477;19;20350;-73
2023/07/13 12:52:16;;;;;;;6.43;1.20;;;26.90;54.70;;;;;;7384970;19;20014;-72
2023/07/13 12:54:56;;;;;;;5.43;1.23;;;27.00;55.20;;;;;;7404956;19;20009;-71
2023/07/13 12:57:27;;;;;;;2.85;1.30;;;26.90;54.70;;;;;;7385479;19;20241;-71
2023/07/13 12:59:56;;;;;;;7.47;1.40;;;26.70;54.20;;;;;;7384279;19;20391;-72
2023/07/13 13:02:37;;;;;;;2.78;1.05;;;26.60;54.60;;;;;;7384113;19;20100;-72
2023/07/13 13:05:07;;;;;;;2.13;1.15;;;26.50;55.00;;;;;;7385711;19;20014;-72
2023/07/13 13:07:38;;;;;;;2.67;1.27;;;26.50;55.20;;;;;;7385723;19;20235;-73
2023/07/13 13:10:13;;;;;;;;;;;26.20;54.80;;;;;;7384340;19;20369;-73